Archival Weather

Chicago O'Hare International

Chicago, Illinois (KORD)

Report from: Sunday, December 4, 2022 4:51 PM CST
Current time: Friday, June 14, 2024 7:51 AM CDT

Current weather – Weather history – Daily summaries
Weather forecast

Temperature2.8°C (37.0°F)
Wind chill-1.5°C (29.3°F)
Dew point-9.4°C (15.1°F)
Winds 10 kts (5.1 m/s, 11.5 mph) South-Southwest (200°)
Visibility10 mi. (16.1 km)
Clouds Few clouds 25,000 ft. (7,620 m)
Altimeter30.04 in.Hg (1017 mB)
Relative humidity40 %
Density altitude-1,594 ft. (-486 m)
Sea-level pressure101.8 kPa (1018 mB, 30.06 in.Hg)
Remarks System requires maintenance
Automated weather observing station with precipitation discriminator
Flight conditions Visual Meteorological Conditions
Raw dataKORD 042251Z 20010KT 10SM FEW250 03/M09 A3004 RMK AO2 SLP181 T00281094 $
An error has occurred. This application may no longer respond until reloaded. Reload 🗙